createdAt,value
2019-04-05T00:01:42.845Z,10.30
2019-04-05T00:04:09.119Z,10.40
2019-04-05T00:06:35.389Z,10.50
2019-04-05T00:09:01.634Z,10.50
2019-04-05T00:11:28.012Z,10.50
2019-04-05T00:13:54.263Z,10.40
2019-04-05T00:16:20.505Z,10.40
2019-04-05T00:18:48.769Z,10.40
2019-04-05T00:21:15.139Z,10.50
2019-04-05T00:23:41.484Z,10.50
2019-04-05T00:26:08.027Z,10.60
2019-04-05T00:28:34.267Z,10.50
2019-04-05T00:31:00.528Z,10.50
2019-04-05T00:33:26.807Z,10.70
2019-04-05T00:35:53.077Z,10.90
2019-04-05T00:38:19.329Z,11.00
2019-04-05T00:40:45.974Z,10.90
2019-04-05T00:43:12.221Z,10.80
2019-04-05T00:45:38.522Z,10.70
2019-04-05T00:48:04.786Z,10.70
2019-04-05T00:50:31.061Z,10.70
2019-04-05T00:52:57.344Z,10.80
2019-04-05T00:55:23.714Z,10.70
2019-04-05T00:57:50.035Z,10.70
2019-04-05T01:00:17.378Z,10.50
2019-04-05T01:02:43.630Z,10.50
2019-04-05T01:05:09.982Z,10.50
2019-04-05T01:07:36.251Z,10.50
2019-04-05T01:10:04.029Z,10.40
2019-04-05T01:12:32.014Z,10.30
2019-04-05T01:14:58.496Z,10.10
2019-04-05T01:17:25.428Z,10.00
2019-04-05T01:19:51.820Z,10.00
2019-04-05T01:22:18.193Z,10.00
2019-04-05T01:24:44.444Z,9.90
2019-04-05T01:27:11.339Z,9.90
2019-04-05T01:29:37.579Z,9.90
2019-04-05T01:32:03.825Z,9.80
2019-04-05T01:34:30.076Z,9.70
2019-04-05T01:36:56.321Z,9.60
2019-04-05T01:39:22.599Z,9.50
2019-04-05T01:41:48.883Z,9.40
2019-04-05T01:44:15.397Z,9.30
2019-04-05T01:46:41.682Z,9.40
2019-04-05T01:49:07.931Z,9.50
2019-04-05T01:51:34.193Z,9.40
2019-04-05T01:54:00.475Z,9.40
2019-04-05T01:56:26.753Z,9.40
2019-04-05T01:58:52.996Z,9.30
2019-04-05T02:01:19.267Z,9.20
2019-04-05T02:03:45.508Z,9.00
2019-04-05T02:06:11.789Z,8.90
2019-04-05T02:08:38.070Z,8.90
2019-04-05T02:11:04.362Z,9.00
2019-04-05T02:13:30.640Z,9.00
2019-04-05T02:16:06.282Z,9.00
2019-04-05T02:18:26.654Z,8.90
2019-04-05T02:20:52.980Z,8.80
2019-04-05T02:23:19.232Z,8.70
2019-04-05T02:25:45.482Z,8.50
2019-04-05T02:28:11.732Z,8.50
2019-04-05T02:30:38.123Z,8.50
2019-04-05T02:33:04.368Z,8.40
2019-04-05T02:35:30.617Z,8.30
2019-04-05T02:37:56.863Z,8.20
2019-04-05T02:40:23.107Z,8.10
2019-04-05T02:42:49.984Z,8.00
2019-04-05T02:45:17.055Z,7.90
2019-04-05T02:47:56.237Z,7.90
2019-04-05T02:50:23.829Z,7.90
2019-04-05T02:52:50.110Z,7.90
2019-04-05T02:55:16.376Z,7.90
2019-04-05T02:57:42.620Z,7.80
2019-04-05T03:00:08.901Z,7.70
2019-04-05T03:02:35.139Z,7.70
2019-04-05T03:05:01.399Z,7.60
2019-04-05T03:07:27.668Z,7.50
2019-04-05T03:09:54.321Z,7.50
2019-04-05T03:12:20.580Z,7.50
2019-04-05T03:14:46.860Z,7.50
2019-04-05T03:17:13.405Z,7.50
2019-04-05T03:19:39.883Z,7.40
2019-04-05T03:22:08.966Z,7.50
2019-04-05T03:24:37.040Z,7.40
2019-04-05T03:27:06.414Z,7.40
2019-04-05T03:29:32.697Z,7.40
2019-04-05T03:31:58.976Z,7.30
2019-04-05T03:34:25.246Z,7.20
2019-04-05T03:36:52.033Z,7.10
2019-04-05T03:39:18.448Z,7.10
2019-04-05T03:41:44.721Z,7.00
2019-04-05T03:44:11.004Z,6.90
2019-04-05T03:46:37.288Z,6.90
2019-04-05T03:49:03.531Z,6.90
2019-04-05T03:51:30.235Z,6.80
2019-04-05T03:53:56.482Z,6.70
2019-04-05T03:56:22.757Z,6.60
2019-04-05T03:58:49.623Z,6.60
2019-04-05T04:01:17.071Z,6.50
2019-04-05T04:03:43.512Z,6.40
2019-04-05T04:06:09.806Z,6.40
2019-04-05T04:08:35.976Z,6.30
2019-04-05T04:11:02.252Z,6.20
2019-04-05T04:13:28.547Z,6.20
2019-04-05T04:15:54.773Z,6.20
2019-04-05T04:18:21.071Z,6.10
2019-04-05T04:20:49.337Z,6.10
2019-04-05T04:23:15.645Z,6.00
2019-04-05T04:25:42.038Z,6.10
2019-04-05T04:28:08.569Z,6.10
2019-04-05T04:30:34.831Z,6.10
2019-04-05T04:33:02.424Z,6.10
2019-04-05T04:35:28.740Z,6.10
2019-04-05T04:37:54.996Z,6.10
2019-04-05T04:40:21.280Z,6.10
2019-04-05T04:42:47.723Z,6.10
2019-04-05T04:45:24.278Z,6.20
2019-04-05T04:47:50.526Z,6.20
2019-04-05T04:50:16.921Z,6.30
2019-04-05T04:52:43.196Z,6.30
2019-04-05T04:55:11.370Z,6.40
2019-04-05T04:57:37.625Z,6.50
2019-04-05T05:00:03.981Z,6.50
2019-04-05T05:02:30.265Z,6.60
2019-04-05T05:04:56.501Z,6.80
2019-04-05T05:07:24.792Z,6.80
2019-04-05T05:09:51.496Z,6.90
2019-04-05T05:12:17.745Z,7.10
2019-04-05T05:14:44.030Z,7.40
2019-04-05T05:17:10.272Z,7.60
2019-04-05T05:19:43.442Z,7.70
2019-04-05T05:22:09.715Z,7.80
2019-04-05T05:24:35.992Z,7.90
2019-04-05T05:27:02.273Z,8.00
2019-04-05T05:29:28.554Z,8.20
2019-04-05T05:31:54.807Z,8.30
2019-04-05T05:34:21.145Z,8.50
2019-04-05T05:36:47.593Z,8.60
2019-04-05T05:39:13.843Z,8.80
2019-04-05T05:41:40.491Z,8.90
2019-04-05T05:44:06.773Z,9.00
2019-04-05T05:46:33.043Z,9.20
2019-04-05T05:48:59.323Z,9.40
2019-04-05T05:51:25.573Z,9.50
2019-04-05T05:53:52.931Z,9.60
2019-04-05T05:56:19.428Z,9.80
2019-04-05T05:58:45.678Z,9.90
2019-04-05T06:01:11.927Z,10.10
2019-04-05T06:03:38.174Z,10.30
2019-04-05T06:06:04.991Z,10.40
2019-04-05T06:08:31.304Z,10.60
2019-04-05T06:10:57.573Z,10.70
2019-04-05T06:13:23.836Z,10.80
2019-04-05T06:16:00.609Z,10.90
2019-04-05T06:18:26.986Z,11.00
2019-04-05T06:20:53.226Z,11.00
2019-04-05T06:25:48.431Z,11.20
2019-04-05T06:28:14.936Z,11.30
2019-04-05T06:30:41.179Z,11.30
2019-04-05T06:33:07.461Z,11.30
2019-04-05T06:35:33.715Z,11.40
2019-04-05T06:35:39.524Z,11.20
2019-04-05T06:37:59.992Z,11.50
2019-04-05T06:40:26.276Z,11.50
2019-04-05T06:42:52.636Z,11.50
2019-04-05T06:45:18.997Z,11.50
2019-04-05T06:47:45.298Z,11.70
2019-04-05T06:50:11.574Z,11.70
2019-04-05T06:52:37.822Z,11.80
2019-04-05T06:55:04.661Z,11.80
2019-04-05T06:57:30.960Z,11.80
2019-04-05T06:59:57.224Z,11.90
2019-04-05T07:02:23.472Z,11.90
2019-04-05T07:04:49.719Z,12.00
2019-04-05T07:07:17.873Z,12.10
2019-04-05T07:09:44.272Z,12.20
2019-04-05T07:12:10.510Z,12.30
2019-04-05T07:14:36.771Z,12.40
2019-04-05T07:17:03.023Z,12.50
2019-04-05T07:19:29.264Z,12.80
2019-04-05T07:21:55.775Z,13.10
2019-04-05T07:24:22.090Z,13.40
2019-04-05T07:26:48.418Z,13.60
2019-04-05T07:29:14.662Z,13.70
2019-04-05T07:31:40.972Z,13.70
2019-04-05T07:34:07.262Z,13.90
2019-04-05T07:36:33.506Z,14.00
2019-04-05T07:38:59.807Z,14.10
2019-04-05T07:41:26.154Z,14.10
2019-04-05T07:43:52.432Z,14.30
2019-04-05T07:46:18.705Z,14.40
2019-04-05T07:48:45.557Z,14.50
2019-04-05T07:51:12.219Z,14.60
2019-04-05T07:53:38.639Z,14.50
2019-04-05T07:56:04.892Z,14.40
2019-04-05T07:58:31.405Z,14.60
2019-04-05T08:00:57.665Z,14.70
2019-04-05T08:03:23.906Z,14.80
2019-04-05T08:05:50.412Z,14.80
2019-04-05T08:08:40.247Z,14.90
2019-04-05T08:11:06.515Z,14.80
2019-04-05T08:13:33.388Z,14.50
2019-04-05T08:16:01.331Z,14.40
2019-04-05T08:18:27.812Z,14.00
2019-04-05T08:20:54.053Z,13.60
2019-04-05T08:23:20.587Z,13.50
2019-04-05T08:25:46.823Z,13.30
2019-04-05T08:28:13.192Z,13.10
2019-04-05T08:30:46.621Z,12.70
2019-04-05T08:33:12.910Z,12.70
2019-04-05T08:35:39.206Z,12.50
2019-04-05T08:38:05.452Z,12.30
2019-04-05T08:40:33.090Z,12.10
2019-04-05T08:42:59.586Z,12.10
2019-04-05T08:45:25.861Z,12.00
2019-04-05T08:47:52.152Z,11.90
2019-04-05T08:50:18.403Z,11.90
2019-04-05T08:52:44.748Z,11.90
2019-04-05T08:55:11.011Z,11.80
2019-04-05T08:57:37.524Z,11.90
2019-04-05T09:00:06.007Z,12.00
2019-04-05T09:02:32.249Z,12.20
2019-04-05T09:04:58.638Z,12.10
2019-04-05T09:07:24.913Z,12.00
2019-04-05T09:09:51.191Z,12.00
2019-04-05T09:12:17.436Z,12.10
2019-04-05T09:14:43.705Z,12.10
2019-04-05T09:17:09.976Z,12.10
2019-04-05T09:19:36.548Z,12.10
2019-04-05T09:22:02.890Z,12.20
2019-04-05T09:24:29.162Z,12.20
2019-04-05T09:26:55.448Z,12.30
2019-04-05T09:29:21.745Z,12.30
2019-04-05T09:31:48.293Z,12.30
2019-04-05T09:34:14.568Z,12.10
2019-04-05T09:36:50.274Z,12.20
2019-04-05T09:39:16.527Z,12.30
2019-04-05T09:41:42.797Z,12.30
2019-04-05T09:44:09.041Z,12.40
2019-04-05T09:46:47.933Z,12.40
2019-04-05T09:49:09.638Z,12.30
2019-04-05T09:51:35.912Z,12.30
2019-04-05T09:54:02.189Z,12.40
2019-04-05T09:56:28.478Z,12.40
2019-04-05T09:58:54.745Z,12.50
2019-04-05T10:01:20.990Z,12.60
2019-04-05T10:03:47.263Z,12.80
2019-04-05T10:06:13.531Z,12.90
2019-04-05T10:08:39.917Z,13.10
2019-04-05T10:11:07.389Z,13.20
2019-04-05T10:13:33.664Z,13.40
2019-04-05T10:15:59.946Z,13.40
2019-04-05T10:18:26.204Z,13.80
2019-04-05T10:20:52.472Z,14.40
2019-04-05T10:23:18.708Z,14.80
2019-04-05T10:25:45.259Z,15.00
2019-04-05T10:28:11.538Z,15.10
2019-04-05T10:30:37.786Z,15.00
2019-04-05T10:33:04.072Z,15.20
2019-04-05T10:35:31.398Z,15.10
2019-04-05T10:37:58.462Z,15.00
2019-04-05T10:40:24.922Z,14.50
2019-04-05T10:42:51.207Z,14.70
2019-04-05T10:45:17.569Z,14.70
2019-04-05T10:47:43.852Z,14.80
2019-04-05T10:50:11.523Z,15.20
2019-04-05T10:52:37.762Z,15.30
2019-04-05T10:55:04.350Z,15.50
2019-04-05T10:57:30.724Z,15.40
2019-04-05T10:59:56.989Z,15.30
2019-04-05T11:02:23.242Z,15.50
2019-04-05T11:04:49.541Z,15.80
2019-04-05T11:07:15.812Z,15.90
2019-04-05T11:09:42.152Z,15.80
2019-04-05T11:12:08.697Z,15.40
2019-04-05T11:14:35.173Z,15.30
2019-04-05T11:17:04.405Z,15.50
2019-04-05T11:19:30.257Z,15.40
2019-04-05T11:21:57.862Z,14.90
2019-04-05T11:24:24.104Z,14.80
2019-04-05T11:26:50.345Z,14.80
2019-04-05T11:29:16.622Z,14.80
2019-04-05T11:31:55.930Z,14.70
2019-04-05T11:34:11.336Z,15.00
2019-04-05T11:36:38.378Z,15.20
2019-04-05T11:39:07.364Z,15.40
2019-04-05T11:41:35.197Z,14.90
2019-04-05T11:44:01.485Z,14.90
2019-04-05T11:46:28.842Z,14.90
2019-04-05T11:48:55.080Z,14.90
2019-04-05T11:51:21.382Z,14.70
2019-04-05T11:53:47.660Z,14.60
2019-04-05T11:56:15.255Z,14.80
2019-04-05T11:58:48.490Z,14.80
2019-04-05T12:01:15.431Z,14.80
2019-04-05T12:03:41.696Z,14.70
2019-04-05T12:06:08.266Z,14.50
2019-04-05T12:08:34.540Z,14.40
2019-04-05T12:11:00.828Z,14.60
2019-04-05T12:13:27.094Z,14.70
2019-04-05T12:15:53.343Z,15.00
2019-04-05T12:18:19.901Z,15.10
2019-04-05T12:20:52.347Z,15.20
2019-04-05T12:23:14.708Z,15.20
2019-04-05T12:25:41.034Z,14.90
2019-04-05T12:28:10.473Z,15.10
2019-04-05T12:30:36.739Z,14.90
2019-04-05T12:33:13.085Z,15.10
2019-04-05T12:35:31.267Z,15.40
2019-04-05T12:37:57.507Z,15.70
2019-04-05T12:40:23.769Z,15.80
2019-04-05T12:42:53.011Z,15.90
2019-04-05T12:45:19.337Z,15.70
2019-04-05T12:47:46.165Z,15.60
2019-04-05T12:50:14.494Z,15.80
2019-04-05T12:52:40.818Z,15.70
2019-04-05T12:55:07.086Z,15.80
2019-04-05T12:57:33.403Z,16.10
2019-04-05T12:59:59.668Z,16.30
2019-04-05T13:02:33.245Z,16.30
2019-04-05T13:04:54.124Z,16.50
2019-04-05T13:07:20.707Z,16.80
2019-04-05T13:09:48.567Z,16.80
2019-04-05T13:12:14.924Z,16.80
2019-04-05T13:14:41.314Z,17.00
2019-04-05T13:17:07.823Z,17.30
2019-04-05T13:19:34.096Z,17.40
2019-04-05T13:22:02.941Z,17.40
2019-04-05T13:24:28.835Z,17.60
2019-04-05T13:26:55.137Z,17.90
2019-04-05T13:29:21.370Z,17.90
2019-04-05T13:31:48.614Z,17.90
2019-04-05T13:34:21.445Z,17.70
2019-04-05T13:36:47.731Z,17.70
2019-04-05T13:39:13.991Z,17.70
2019-04-05T13:41:40.348Z,18.10
2019-04-05T13:44:06.597Z,18.60
2019-04-05T13:46:32.956Z,18.70
2019-04-05T13:48:59.244Z,18.80
2019-04-05T13:51:28.086Z,18.60
2019-04-05T13:53:53.958Z,18.70
2019-04-05T13:56:21.040Z,18.90
2019-04-05T13:58:48.069Z,18.90
2019-04-05T14:01:14.334Z,19.10
2019-04-05T14:03:40.573Z,19.80
2019-04-05T14:06:06.900Z,20.40
2019-04-05T14:08:33.241Z,20.50
2019-04-05T14:11:00.799Z,20.50
2019-04-05T14:13:28.674Z,20.30
2019-04-05T14:15:55.248Z,20.60
2019-04-05T14:18:21.546Z,20.80
2019-04-05T14:20:49.976Z,20.80
2019-04-05T14:23:15.971Z,20.50
2019-04-05T14:25:44.379Z,20.10
2019-04-05T14:28:10.617Z,20.10
2019-04-05T14:30:36.859Z,20.10
2019-04-05T14:33:03.598Z,19.70
2019-04-05T14:35:29.839Z,19.80
2019-04-05T14:37:56.087Z,20.00
2019-04-05T14:40:22.351Z,20.60
2019-04-05T14:42:48.707Z,21.30
2019-04-05T14:45:15.091Z,21.20
2019-04-05T14:47:41.751Z,21.20
2019-04-05T14:50:11.031Z,21.10
2019-04-05T14:52:37.404Z,21.30
2019-04-05T14:55:06.787Z,21.30
2019-04-05T14:57:35.518Z,21.30
2019-04-05T15:00:01.372Z,21.10
2019-04-05T15:02:27.635Z,20.90
2019-04-05T15:04:53.880Z,20.80
2019-04-05T15:07:20.845Z,20.90
2019-04-05T15:09:47.900Z,21.10
2019-04-05T15:12:14.150Z,20.90
2019-04-05T15:14:40.394Z,20.80
2019-04-05T15:17:06.632Z,20.70
2019-04-05T15:19:32.884Z,20.50
2019-04-05T15:22:05.708Z,20.30
2019-04-05T15:24:27.340Z,20.20
2019-04-05T15:26:53.899Z,20.10
2019-04-05T15:29:20.165Z,19.60
2019-04-05T15:31:46.425Z,19.50
2019-04-05T15:34:12.698Z,19.50
2019-04-05T15:36:38.937Z,19.40
2019-04-05T15:39:07.525Z,19.30
2019-04-05T15:41:34.272Z,19.10
2019-04-05T15:44:00.529Z,18.80
2019-04-05T15:46:27.053Z,18.50
2019-04-05T15:48:53.452Z,18.50
2019-04-05T15:51:19.710Z,18.70
2019-04-05T15:53:45.981Z,18.80
2019-04-05T15:56:12.236Z,18.90
2019-04-05T15:58:38.495Z,19.10
2019-04-05T16:01:05.225Z,19.20
2019-04-05T16:03:32.334Z,19.30
2019-04-05T16:05:59.450Z,19.20
2019-04-05T16:08:25.821Z,18.80
2019-04-05T16:10:52.092Z,18.30
2019-04-05T16:13:18.411Z,17.90
2019-04-05T16:15:44.635Z,17.50
2019-04-05T16:18:11.045Z,17.10
2019-04-05T16:20:37.349Z,16.90
2019-04-05T16:23:03.607Z,16.90
2019-04-05T16:25:29.880Z,17.00
2019-04-05T16:27:56.312Z,17.20
2019-04-05T16:30:22.825Z,17.20
2019-04-05T16:32:49.176Z,17.20
2019-04-05T16:35:15.451Z,17.20
2019-04-05T16:37:41.721Z,16.90
2019-04-05T16:40:08.062Z,16.80
2019-04-05T16:42:34.312Z,16.40
2019-04-05T16:45:00.597Z,16.10
2019-04-05T16:47:26.838Z,16.00
2019-04-05T16:49:53.137Z,15.80
2019-04-05T16:52:19.385Z,15.70
2019-04-05T16:54:45.675Z,15.50
2019-04-05T16:57:12.447Z,15.40
2019-04-05T16:59:38.706Z,15.30
2019-04-05T17:02:04.997Z,15.10
2019-04-05T17:04:31.227Z,15.00
2019-04-05T17:06:57.503Z,14.80
2019-04-05T17:09:23.805Z,14.60
2019-04-05T17:11:50.123Z,14.40
2019-04-05T17:14:16.496Z,14.20
2019-04-05T17:16:42.729Z,14.00
2019-04-05T17:19:09.015Z,13.80
2019-04-05T17:21:35.389Z,13.60
2019-04-05T17:24:01.672Z,13.40
2019-04-05T17:26:27.937Z,13.20
2019-04-05T17:28:54.260Z,13.10
2019-04-05T17:31:20.505Z,13.00
2019-04-05T17:33:46.788Z,13.00
2019-04-05T17:36:13.096Z,13.00
2019-04-05T17:38:39.372Z,13.10
2019-04-05T17:41:05.694Z,13.00
2019-04-05T17:43:31.931Z,13.00
2019-04-05T17:45:58.630Z,12.90
2019-04-05T17:48:24.887Z,12.70
2019-04-05T17:50:51.132Z,12.50
2019-04-05T17:53:17.453Z,12.30
2019-04-05T17:55:43.748Z,12.20
2019-04-05T17:58:10.234Z,12.10
2019-04-05T18:00:37.097Z,12.00
2019-04-05T18:03:03.669Z,11.80
2019-04-05T18:05:29.952Z,11.70
2019-04-05T18:07:56.227Z,11.60
2019-04-05T18:10:22.483Z,11.50
2019-04-05T18:12:48.756Z,11.50
2019-04-05T18:15:15.054Z,11.50
2019-04-05T18:17:41.363Z,11.60
2019-04-05T18:20:09.752Z,11.60
2019-04-05T18:22:35.864Z,11.60
2019-04-05T18:25:03.992Z,11.60
2019-04-05T18:27:30.223Z,11.60
2019-04-05T18:29:56.485Z,11.60
2019-04-05T18:32:22.756Z,11.50
2019-04-05T18:34:48.995Z,11.50
2019-04-05T18:37:15.237Z,11.50
2019-04-05T18:39:41.510Z,11.50
2019-04-05T18:42:07.779Z,11.50
2019-04-05T18:44:34.036Z,11.50
2019-04-05T18:47:00.336Z,11.50
2019-04-05T18:49:26.674Z,11.40
2019-04-05T18:51:52.958Z,11.40
2019-04-05T18:54:19.260Z,11.40
2019-04-05T18:56:45.601Z,11.40
2019-04-05T18:59:11.929Z,11.40
2019-04-05T19:01:39.392Z,11.40
2019-04-05T19:04:05.818Z,11.30
2019-04-05T19:06:32.200Z,11.30
2019-04-05T19:08:58.487Z,11.30
2019-04-05T19:11:24.775Z,11.20
2019-04-05T19:14:00.867Z,11.10
2019-04-05T19:16:19.430Z,11.00
2019-04-05T19:18:45.727Z,11.00
2019-04-05T19:21:14.193Z,10.90
2019-04-05T19:23:50.382Z,11.00
2019-04-05T19:26:09.349Z,11.10
2019-04-05T19:28:35.668Z,11.10
2019-04-05T19:50:53.885Z,10.90
2019-04-05T19:53:20.548Z,10.90
2019-04-05T19:55:46.888Z,10.90
2019-04-05T19:58:15.925Z,10.90
2019-04-05T20:00:46.625Z,10.90
2019-04-05T20:03:16.237Z,11.00
2019-04-05T20:05:42.810Z,11.00
2019-04-05T20:08:11.689Z,11.00
2019-04-05T20:10:37.926Z,11.00
2019-04-05T20:13:06.221Z,11.00
2019-04-05T20:15:35.901Z,11.00
2019-04-05T20:18:02.271Z,11.00
2019-04-05T20:20:28.797Z,11.00
2019-04-05T20:22:55.448Z,11.10
2019-04-05T20:25:21.774Z,11.10
2019-04-05T20:27:48.894Z,11.00
2019-04-05T20:30:16.081Z,11.00
2019-04-05T20:32:42.418Z,11.00
2019-04-05T20:35:08.686Z,11.00
2019-04-05T20:37:41.126Z,11.00
2019-04-05T20:40:07.509Z,11.10
2019-04-05T20:42:35.724Z,11.00
2019-04-05T20:45:02.110Z,11.00
2019-04-05T20:47:29.075Z,11.00
2019-04-05T20:49:55.880Z,11.00
2019-04-05T20:52:26.185Z,11.00
2019-04-05T20:54:55.359Z,11.00
2019-04-05T20:57:21.619Z,11.00
2019-04-05T20:59:47.960Z,11.00
2019-04-05T21:02:16.290Z,11.10
2019-04-05T21:04:43.775Z,11.10
2019-04-05T21:07:11.269Z,11.10
2019-04-05T21:09:37.562Z,11.10
2019-04-05T21:12:06.737Z,11.10
2019-04-05T21:14:36.177Z,11.20
2019-04-05T21:17:02.666Z,11.20
2019-04-05T21:19:30.696Z,11.20
2019-04-05T21:21:57.194Z,11.20
2019-04-05T21:24:23.436Z,11.20
2019-04-05T21:26:50.419Z,11.20
2019-04-05T21:29:16.726Z,11.20
2019-04-05T21:31:43.579Z,11.30
2019-04-05T21:34:10.808Z,11.30
2019-04-05T21:36:37.059Z,11.20
2019-04-05T21:39:05.843Z,11.20
2019-04-05T21:41:32.916Z,11.20
2019-04-05T21:43:59.198Z,11.20
2019-04-05T21:46:25.472Z,11.10
2019-04-05T21:48:51.711Z,11.10
2019-04-05T21:51:17.964Z,11.00
2019-04-05T21:53:44.352Z,10.90
2019-04-05T21:56:10.593Z,10.90
2019-04-05T21:58:36.879Z,10.70
2019-04-05T22:01:05.074Z,10.60
2019-04-05T22:03:31.345Z,10.50
2019-04-05T22:05:57.593Z,10.40
2019-04-05T22:08:24.067Z,10.40
2019-04-05T22:10:50.340Z,10.20
2019-04-05T22:13:16.595Z,10.10
2019-04-05T22:15:42.977Z,10.00
2019-04-05T22:18:09.248Z,9.80
2019-04-05T22:20:35.707Z,9.70
2019-04-05T22:23:02.205Z,9.60
2019-04-05T22:25:28.475Z,9.50
2019-04-05T22:27:54.837Z,9.40
2019-04-05T22:30:21.076Z,9.30
2019-04-05T22:32:47.329Z,9.20
2019-04-05T22:35:13.581Z,9.00
2019-04-05T22:37:39.847Z,9.00
2019-04-05T22:40:06.178Z,8.80
2019-04-05T22:42:32.554Z,8.70
2019-04-05T22:44:59.041Z,8.70
2019-04-05T22:47:25.422Z,8.70
2019-04-05T22:49:51.704Z,8.70
2019-04-05T22:52:17.984Z,8.60
2019-04-05T22:54:44.226Z,8.60
2019-04-05T22:57:10.811Z,8.60
2019-04-05T22:59:37.037Z,8.60
2019-04-05T23:02:03.874Z,8.60
2019-04-05T23:04:30.147Z,8.70
2019-04-05T23:06:56.686Z,8.70
2019-04-05T23:09:22.919Z,8.70
2019-04-05T23:11:49.256Z,8.60
2019-04-05T23:14:15.533Z,8.50
2019-04-05T23:16:41.814Z,8.50
2019-04-05T23:19:08.055Z,8.40
2019-04-05T23:21:34.305Z,8.40
2019-04-05T23:24:00.853Z,8.40
2019-04-05T23:26:28.877Z,8.40
2019-04-05T23:28:55.317Z,8.40
2019-04-05T23:31:21.637Z,8.50
2019-04-05T23:33:48.009Z,8.60
2019-04-05T23:36:14.283Z,8.50
2019-04-05T23:38:40.537Z,8.50
2019-04-05T23:41:06.810Z,8.40
2019-04-05T23:43:33.097Z,8.40
2019-04-05T23:46:00.756Z,8.30
2019-04-05T23:48:27.003Z,8.20
2019-04-05T23:50:53.539Z,8.10
2019-04-05T23:53:19.777Z,8.00
2019-04-05T23:55:46.070Z,8.00
2019-04-05T23:58:12.305Z,7.90
